createdAt,value
2023-02-08T00:00:06.373Z,99.90
2023-02-08T00:02:33.127Z,99.90
2023-02-08T00:04:59.807Z,99.90
2023-02-08T00:07:26.510Z,99.90
2023-02-08T00:09:53.252Z,99.90
2023-02-08T00:12:28.372Z,99.90
2023-02-08T00:14:56.078Z,99.90
2023-02-08T00:17:22.792Z,99.90
2023-02-08T00:19:49.487Z,99.90
2023-02-08T00:22:16.204Z,99.90
2023-02-08T00:24:42.906Z,99.90
2023-02-08T00:27:09.671Z,99.90
2023-02-08T00:29:36.335Z,99.90
2023-02-08T00:32:03.191Z,99.90
2023-02-08T00:34:30.011Z,99.90
2023-02-08T00:36:56.738Z,99.90
2023-02-08T00:39:24.527Z,99.90
2023-02-08T00:41:51.324Z,99.90
2023-02-08T00:44:18.824Z,99.90
2023-02-08T00:46:45.563Z,99.90
2023-02-08T00:49:12.339Z,99.90
2023-02-08T00:51:39.007Z,99.90
2023-02-08T00:54:05.735Z,99.90
2023-02-08T00:56:32.428Z,99.90
2023-02-08T00:58:59.138Z,99.90
2023-02-08T01:01:25.849Z,99.90
2023-02-08T01:03:52.569Z,99.90
2023-02-08T01:06:20.560Z,99.90
2023-02-08T01:08:47.375Z,99.90
2023-02-08T01:11:18.616Z,99.90
2023-02-08T01:16:17.996Z,99.90
2023-02-08T01:18:47.030Z,99.90
2023-02-08T01:21:16.359Z,99.90
2023-02-08T01:23:44.070Z,99.90
2023-02-08T01:26:12.532Z,99.90
2023-02-08T01:28:40.039Z,99.90
2023-02-08T01:31:12.760Z,99.90
2023-02-08T01:33:39.607Z,99.90
2023-02-08T01:36:09.856Z,99.90
2023-02-08T01:38:37.793Z,99.90
2023-02-08T01:41:07.262Z,99.90
2023-02-08T01:43:55.568Z,99.90
2023-02-08T01:46:22.951Z,99.90
2023-02-08T01:48:50.630Z,99.90
2023-02-08T01:51:25.170Z,99.90
2023-02-08T01:53:53.674Z,99.90
2023-02-08T01:56:26.744Z,99.90
2023-02-08T01:58:57.045Z,99.90
2023-02-08T02:01:24.931Z,99.90
2023-02-08T02:03:51.787Z,99.90
2023-02-08T02:06:23.973Z,99.90
2023-02-08T02:09:03.571Z,99.90
2023-02-08T02:11:30.401Z,99.90
2023-02-08T02:13:58.860Z,99.90
2023-02-08T02:16:25.572Z,99.90
2023-02-08T02:18:52.522Z,99.90
2023-02-08T02:21:41.162Z,99.90
2023-02-08T02:24:42.220Z,99.90
2023-02-08T02:27:30.811Z,99.90
2023-02-08T02:30:21.559Z,99.90
2023-02-08T02:32:51.340Z,99.90
2023-02-08T02:35:46.004Z,99.90
2023-02-08T02:38:41.263Z,99.90
2023-02-08T02:41:42.990Z,99.90
2023-02-08T02:44:23.167Z,99.90
2023-02-08T02:47:11.099Z,99.90
2023-02-08T02:50:03.638Z,99.90
2023-02-08T02:52:58.832Z,99.90
2023-02-08T02:55:28.092Z,99.90
2023-02-08T02:57:57.775Z,99.90
2023-02-08T03:00:26.857Z,99.90
2023-02-08T03:02:55.565Z,99.90
2023-02-08T03:05:22.386Z,99.90
2023-02-08T03:07:57.623Z,99.90
2023-02-08T03:10:52.924Z,99.90
2023-02-08T03:13:25.723Z,99.90
2023-02-08T03:16:08.346Z,99.90
2023-02-08T03:19:09.584Z,99.90
2023-02-08T03:21:54.887Z,99.90
2023-02-08T03:24:29.081Z,99.90
2023-02-08T03:27:12.716Z,99.90
2023-02-08T03:30:05.721Z,99.90
2023-02-08T03:32:45.520Z,99.90
2023-02-08T03:35:19.416Z,99.90
2023-02-08T03:38:15.819Z,99.90
2023-02-08T03:40:48.088Z,99.90
2023-02-08T03:43:19.131Z,99.90
2023-02-08T03:45:53.639Z,99.90
2023-02-08T03:48:23.339Z,99.90
2023-02-08T03:50:53.619Z,99.90
2023-02-08T03:53:22.576Z,99.90
2023-02-08T03:55:54.396Z,99.90
2023-02-08T03:58:33.816Z,99.90
2023-02-08T04:01:15.612Z,99.90
2023-02-08T04:03:44.844Z,99.90
2023-02-08T04:06:11.919Z,99.90
2023-02-08T04:08:38.601Z,99.90
2023-02-08T04:11:05.490Z,99.90
2023-02-08T04:13:32.207Z,99.90
2023-02-08T04:15:58.936Z,99.90
2023-02-08T04:18:25.640Z,99.90
2023-02-08T04:20:52.323Z,99.90
2023-02-08T04:23:19.011Z,99.90
2023-02-08T04:25:45.708Z,99.90
2023-02-08T04:28:12.630Z,99.90
2023-02-08T04:30:39.627Z,99.90
2023-02-08T04:33:06.566Z,99.90
2023-02-08T04:35:33.872Z,99.90
2023-02-08T04:38:00.559Z,99.90
2023-02-08T04:40:27.224Z,99.90
2023-02-08T04:42:53.882Z,99.90
2023-02-08T04:45:20.598Z,99.90
2023-02-08T04:47:47.279Z,99.90
2023-02-08T04:50:14.599Z,99.90
2023-02-08T04:52:41.262Z,99.90
2023-02-08T04:55:08.370Z,99.90
2023-02-08T04:57:35.062Z,99.90
2023-02-08T05:00:02.305Z,99.90
2023-02-08T05:02:29.469Z,99.90
2023-02-08T05:04:56.167Z,99.90
2023-02-08T05:07:22.863Z,99.90
2023-02-08T05:09:49.519Z,99.90
2023-02-08T05:12:16.280Z,99.90
2023-02-08T05:14:42.949Z,99.90
2023-02-08T05:17:09.737Z,99.90
2023-02-08T05:19:36.573Z,99.90
2023-02-08T05:22:03.337Z,99.90
2023-02-08T05:24:30.009Z,99.90
2023-02-08T05:26:56.704Z,99.90
2023-02-08T05:29:23.425Z,99.90
2023-02-08T05:31:50.170Z,99.90
2023-02-08T05:34:16.926Z,99.90
2023-02-08T05:36:43.634Z,99.90
2023-02-08T05:39:10.350Z,99.90
2023-02-08T05:41:37.046Z,99.90
2023-02-08T05:44:03.812Z,99.90
2023-02-08T05:46:30.621Z,99.90
2023-02-08T05:48:57.687Z,99.90
2023-02-08T05:51:24.419Z,99.90
2023-02-08T05:53:51.173Z,99.90
2023-02-08T05:56:17.854Z,99.90
2023-02-08T05:58:44.536Z,99.90
2023-02-08T06:01:13.521Z,99.90
2023-02-08T06:03:40.893Z,99.90
2023-02-08T06:06:10.682Z,99.90
2023-02-08T06:08:38.720Z,99.90
2023-02-08T06:11:06.216Z,99.90
2023-02-08T06:13:32.952Z,99.90
2023-02-08T06:15:59.647Z,99.90
2023-02-08T06:18:26.775Z,99.90
2023-02-08T06:20:54.542Z,99.90
2023-02-08T06:23:21.880Z,99.90
2023-02-08T06:25:48.605Z,99.90
2023-02-08T06:28:15.377Z,99.90
2023-02-08T06:30:42.393Z,99.90
2023-02-08T06:33:09.361Z,99.90
2023-02-08T06:35:36.034Z,99.90
2023-02-08T06:38:02.870Z,99.90
2023-02-08T06:40:29.570Z,99.90
2023-02-08T06:42:56.273Z,99.90
2023-02-08T06:45:22.965Z,99.90
2023-02-08T06:47:49.663Z,99.90
2023-02-08T06:50:16.420Z,99.90
2023-02-08T06:52:43.131Z,99.90
2023-02-08T06:55:09.816Z,99.90
2023-02-08T06:57:36.501Z,99.90
2023-02-08T07:00:04.586Z,99.90
2023-02-08T07:02:31.423Z,99.90
2023-02-08T07:04:58.211Z,99.90
2023-02-08T07:07:24.929Z,99.90
2023-02-08T07:09:51.694Z,99.90
2023-02-08T07:12:18.540Z,99.90
2023-02-08T07:14:45.310Z,99.90
2023-02-08T07:17:13.015Z,99.90
2023-02-08T07:19:40.243Z,99.90
2023-02-08T07:22:09.922Z,99.90
2023-02-08T07:24:38.810Z,99.90
2023-02-08T07:27:06.854Z,99.90
2023-02-08T07:29:34.323Z,99.90
2023-02-08T07:32:02.170Z,99.90
2023-02-08T07:34:30.340Z,99.90
2023-02-08T07:39:24.793Z,99.90
2023-02-08T07:41:51.654Z,99.90
2023-02-08T07:44:18.583Z,99.90
2023-02-08T07:46:45.298Z,99.90
2023-02-08T07:49:11.994Z,99.90
2023-02-08T07:51:38.702Z,99.90
2023-02-08T07:54:05.407Z,99.90
2023-02-08T07:56:32.066Z,99.90
2023-02-08T07:58:58.820Z,99.90
2023-02-08T08:01:25.637Z,99.90
2023-02-08T08:03:54.111Z,99.90
2023-02-08T08:06:22.811Z,99.90
2023-02-08T08:08:49.919Z,99.90
2023-02-08T08:13:44.343Z,99.90
2023-02-08T08:16:11.171Z,99.90
2023-02-08T08:18:37.880Z,99.90
2023-02-08T08:21:05.024Z,99.90
2023-02-08T08:23:33.215Z,99.90
2023-02-08T08:26:00.870Z,99.90
2023-02-08T08:28:28.014Z,99.90
2023-02-08T08:30:54.880Z,99.90
2023-02-08T08:33:21.684Z,99.90
2023-02-08T08:35:48.370Z,99.90
2023-02-08T08:38:15.046Z,99.90
2023-02-08T08:40:42.287Z,99.90
2023-02-08T08:43:09.145Z,99.90
2023-02-08T08:45:36.331Z,99.90
2023-02-08T08:48:13.972Z,99.90
2023-02-08T08:50:51.894Z,99.90
2023-02-08T08:55:50.303Z,99.90
2023-02-08T08:58:17.086Z,99.90
2023-02-08T09:03:10.962Z,99.90
2023-02-08T09:05:37.789Z,99.90
2023-02-08T09:10:34.413Z,99.90
2023-02-08T09:13:01.325Z,99.90
2023-02-08T09:15:32.737Z,99.90
2023-02-08T09:17:59.470Z,99.90
2023-02-08T09:20:26.390Z,99.90
2023-02-08T09:22:53.795Z,99.90
2023-02-08T09:25:20.717Z,99.90
2023-02-08T09:27:47.427Z,99.90
2023-02-08T09:30:14.601Z,99.90
2023-02-08T09:32:41.643Z,99.90
2023-02-08T09:35:20.924Z,99.90
2023-02-08T09:38:37.308Z,99.90
2023-02-08T09:44:31.329Z,99.90
2023-02-08T09:47:06.508Z,99.90
2023-02-08T09:49:46.597Z,99.90
2023-02-08T09:52:18.368Z,99.90
2023-02-08T09:54:59.934Z,99.90
2023-02-08T09:57:31.605Z,99.90
2023-02-08T10:02:33.784Z,99.90
2023-02-08T10:20:34.582Z,99.90
2023-02-08T10:27:26.942Z,99.90
2023-02-08T10:30:15.727Z,99.90
2023-02-08T10:43:38.189Z,99.90
2023-02-08T10:49:14.454Z,99.90
2023-02-08T10:51:41.514Z,99.90
2023-02-08T10:56:44.417Z,99.90
2023-02-08T10:59:42.528Z,99.90
2023-02-08T11:02:25.577Z,99.90
2023-02-08T11:05:10.818Z,99.90
2023-02-08T11:07:37.582Z,99.90
2023-02-08T11:10:16.755Z,99.90
2023-02-08T11:12:55.057Z,99.90
2023-02-08T11:15:25.550Z,99.90
2023-02-08T11:17:59.414Z,99.90
2023-02-08T11:22:55.828Z,99.90
2023-02-08T11:25:38.648Z,99.90
2023-02-08T11:33:29.984Z,99.90
2023-02-08T11:36:06.921Z,99.90
2023-02-08T11:38:35.888Z,99.90
2023-02-08T11:41:13.651Z,99.90
2023-02-08T11:43:40.511Z,99.90
2023-02-08T11:46:07.349Z,99.90
2023-02-08T11:48:43.695Z,99.90
2023-02-08T11:51:14.964Z,99.90
2023-02-08T11:53:47.312Z,99.90
2023-02-08T11:56:27.438Z,99.90
2023-02-08T11:59:03.834Z,99.90
2023-02-08T12:01:39.809Z,99.90
2023-02-08T12:04:17.569Z,99.90
2023-02-08T12:06:44.286Z,99.50
2023-02-08T12:09:39.215Z,99.10
2023-02-08T12:12:05.930Z,99.30
2023-02-08T12:14:57.677Z,99.10
2023-02-08T12:17:36.565Z,98.00
2023-02-08T12:20:33.071Z,98.40
2023-02-08T12:23:29.385Z,98.60
2023-02-08T12:26:16.279Z,98.70
2023-02-08T12:29:20.259Z,97.70
2023-02-08T12:32:14.571Z,98.10
2023-02-08T12:43:14.767Z,91.80
2023-02-08T12:45:52.388Z,91.10
2023-02-08T12:48:37.615Z,92.00
2023-02-08T12:51:09.181Z,93.10
2023-02-08T12:54:06.763Z,91.00
2023-02-08T12:56:42.413Z,90.10
2023-02-08T13:01:46.255Z,90.40
2023-02-08T13:44:37.378Z,89.70
2023-02-08T13:47:07.354Z,91.00
2023-02-08T13:49:49.330Z,90.90
2023-02-08T13:52:47.127Z,87.00
2023-02-08T13:55:30.705Z,88.60
2023-02-08T13:58:00.412Z,88.80
2023-02-08T14:00:33.126Z,95.40
2023-02-08T14:03:03.665Z,94.40
2023-02-08T14:05:35.568Z,93.70
2023-02-08T14:08:04.330Z,93.30
2023-02-08T14:10:39.462Z,94.10
2023-02-08T14:31:38.250Z,96.60
2023-02-08T14:34:05.818Z,94.90
2023-02-08T14:36:35.656Z,85.10
2023-02-08T14:54:32.576Z,67.70
2023-02-08T14:57:16.612Z,73.30
2023-02-08T14:59:44.096Z,80.20
2023-02-08T15:02:25.719Z,82.90
2023-02-08T15:04:52.722Z,90.00
2023-02-08T15:07:29.091Z,91.50
2023-02-08T15:14:57.929Z,98.80
2023-02-08T15:19:53.242Z,91.20
2023-02-08T15:22:25.996Z,91.50
2023-02-08T15:25:02.035Z,90.50
2023-02-08T15:27:32.264Z,91.40
2023-02-08T15:35:03.683Z,64.30
2023-02-08T15:37:33.753Z,65.50
2023-02-08T15:40:01.639Z,66.10
2023-02-08T15:42:33.548Z,66.70
2023-02-08T15:45:02.707Z,67.70
2023-02-08T15:47:35.988Z,68.60
2023-02-08T15:57:47.088Z,71.50
2023-02-08T16:02:43.757Z,73.80
2023-02-08T16:05:20.210Z,76.80
2023-02-08T16:07:47.510Z,77.00
2023-02-08T16:12:57.494Z,83.30
2023-02-08T16:15:43.015Z,88.80
2023-02-08T16:18:38.417Z,90.40
2023-02-08T16:26:19.110Z,93.20
2023-02-08T16:31:22.952Z,94.80
2023-02-08T16:36:25.661Z,96.10
2023-02-08T16:41:57.240Z,97.30
2023-02-08T16:44:31.751Z,98.00
2023-02-08T16:52:02.221Z,99.70
2023-02-08T16:54:28.884Z,99.90
2023-02-08T16:56:59.964Z,99.90
2023-02-08T17:01:56.510Z,99.90
2023-02-08T17:04:26.540Z,99.90
2023-02-08T17:06:54.075Z,99.90
2023-02-08T17:11:47.883Z,99.90
2023-02-08T17:14:14.560Z,99.90
2023-02-08T17:16:44.173Z,99.90
2023-02-08T17:19:16.676Z,99.90
2023-02-08T17:24:10.757Z,99.90
2023-02-08T17:26:41.888Z,99.90
2023-02-08T17:29:10.938Z,99.90
2023-02-08T17:34:06.486Z,99.90
2023-02-08T17:36:36.763Z,99.90
2023-02-08T17:39:05.314Z,99.90
2023-02-08T17:41:32.167Z,99.90
2023-02-08T17:43:59.125Z,99.90
2023-02-08T17:48:54.747Z,99.90
2023-02-08T17:51:23.515Z,99.90
2023-02-08T17:53:50.318Z,99.90
2023-02-08T17:56:20.814Z,99.90
2023-02-08T17:58:51.356Z,99.90
2023-02-08T18:01:25.569Z,99.90
2023-02-08T18:03:52.803Z,99.90
2023-02-08T18:06:24.914Z,99.90
2023-02-08T18:08:52.593Z,99.90
2023-02-08T18:11:20.793Z,99.90
2023-02-08T18:13:48.721Z,99.90
2023-02-08T18:16:22.303Z,99.90
2023-02-08T18:18:49.121Z,99.90
2023-02-08T18:21:19.403Z,99.90
2023-02-08T18:23:47.458Z,99.90
2023-02-08T18:26:16.813Z,99.90
2023-02-08T18:28:43.738Z,99.90
2023-02-08T18:31:14.905Z,99.90
2023-02-08T18:36:11.636Z,99.90
2023-02-08T18:38:46.061Z,99.90
2023-02-08T18:41:16.553Z,99.90
2023-02-08T18:43:43.292Z,99.90
2023-02-08T18:46:13.247Z,99.90
2023-02-08T18:48:41.202Z,99.90
2023-02-08T18:51:09.518Z,99.90
2023-02-08T18:53:38.654Z,99.90
2023-02-08T18:56:07.773Z,99.90
2023-02-08T18:58:34.882Z,99.90
2023-02-08T19:01:10.481Z,99.90
2023-02-08T19:03:37.829Z,99.90
2023-02-08T19:06:13.549Z,99.90
2023-02-08T19:08:41.239Z,99.90
2023-02-08T19:11:23.608Z,99.90
2023-02-08T19:13:51.615Z,99.90
2023-02-08T19:16:21.664Z,99.90
2023-02-08T19:18:48.814Z,99.90
2023-02-08T19:21:17.655Z,99.90
2023-02-08T19:23:48.822Z,99.90
2023-02-08T19:26:24.793Z,99.90
2023-02-08T19:28:53.499Z,99.90
2023-02-08T19:31:22.719Z,99.90
2023-02-08T19:33:58.483Z,99.90
2023-02-08T19:36:28.515Z,99.90
2023-02-08T19:38:56.443Z,99.90
2023-02-08T19:41:28.528Z,99.90
2023-02-08T19:43:55.281Z,99.90
2023-02-08T19:46:23.389Z,99.90
2023-02-08T19:48:52.416Z,99.90
2023-02-08T19:51:19.620Z,99.90
2023-02-08T19:53:46.982Z,99.90
2023-02-08T19:56:15.859Z,99.90
2023-02-08T19:58:43.519Z,99.90
2023-02-08T20:01:30.706Z,99.90
2023-02-08T20:03:57.393Z,99.90
2023-02-08T20:06:27.461Z,99.90
2023-02-08T20:08:54.737Z,99.90
2023-02-08T20:13:54.394Z,99.90
2023-02-08T20:16:22.148Z,99.90
2023-02-08T20:18:49.949Z,99.90
2023-02-08T20:21:17.385Z,99.90
2023-02-08T20:23:44.592Z,99.90
2023-02-08T20:26:15.809Z,99.90
2023-02-08T20:28:45.835Z,99.90
2023-02-08T20:31:19.889Z,99.90
2023-02-08T20:33:48.157Z,99.90
2023-02-08T20:36:17.638Z,99.90
2023-02-08T20:38:44.750Z,99.90
2023-02-08T20:41:14.173Z,99.90
2023-02-08T20:43:42.387Z,99.90
2023-02-08T20:46:14.261Z,99.90
2023-02-08T20:48:40.984Z,99.90
2023-02-08T20:51:10.569Z,99.90
2023-02-08T20:53:39.119Z,99.90
2023-02-08T20:56:07.712Z,99.90
2023-02-08T20:58:35.373Z,99.90
2023-02-08T21:01:02.571Z,99.90
2023-02-08T21:03:29.314Z,99.90
2023-02-08T21:05:56.060Z,99.90
2023-02-08T21:08:22.799Z,99.90
2023-02-08T21:10:49.498Z,99.90
2023-02-08T21:13:16.178Z,99.90
2023-02-08T21:15:44.141Z,99.90
2023-02-08T21:18:11.320Z,99.90
2023-02-08T21:20:39.400Z,99.90
2023-02-08T21:23:07.123Z,99.90
2023-02-08T21:25:34.004Z,99.90
2023-02-08T21:28:00.887Z,99.90
2023-02-08T21:30:27.809Z,99.90
2023-02-08T21:32:54.539Z,99.90
2023-02-08T21:35:21.339Z,99.90
2023-02-08T21:37:48.110Z,99.90
2023-02-08T21:40:15.234Z,99.90
2023-02-08T21:42:42.022Z,99.90
2023-02-08T21:45:09.885Z,99.90
2023-02-08T21:47:37.065Z,99.90
2023-02-08T21:50:22.853Z,99.90
2023-02-08T21:53:09.020Z,99.90
2023-02-08T21:55:35.705Z,99.90
2023-02-08T21:58:02.367Z,99.90
2023-02-08T22:00:29.277Z,99.90
2023-02-08T22:02:55.985Z,99.90
2023-02-08T22:05:41.384Z,99.90
2023-02-08T22:08:08.033Z,99.90
2023-02-08T22:10:34.778Z,99.90
2023-02-08T22:13:01.503Z,99.90
2023-02-08T22:15:30.057Z,99.90
2023-02-08T22:17:59.859Z,99.90
2023-02-08T22:20:27.011Z,99.90
2023-02-08T22:22:55.337Z,99.90
2023-02-08T22:25:22.448Z,99.90
2023-02-08T22:27:49.223Z,99.90
2023-02-08T22:30:17.883Z,99.90
2023-02-08T22:32:46.377Z,99.90
2023-02-08T22:35:14.285Z,99.90
2023-02-08T22:37:41.007Z,99.90
2023-02-08T22:40:10.136Z,99.90
2023-02-08T22:42:39.488Z,99.90
2023-02-08T22:45:06.525Z,99.90
2023-02-08T22:47:34.272Z,99.90
2023-02-08T22:50:01.442Z,99.90
2023-02-08T22:52:28.301Z,99.90
2023-02-08T22:54:56.027Z,99.90
2023-02-08T22:57:22.745Z,99.90
2023-02-08T22:59:49.595Z,99.90
2023-02-08T23:02:18.858Z,99.90
2023-02-08T23:04:45.537Z,99.90
2023-02-08T23:07:12.266Z,99.90
2023-02-08T23:09:38.961Z,99.90
2023-02-08T23:12:06.122Z,99.90
2023-02-08T23:14:34.024Z,99.90
2023-02-08T23:17:00.697Z,99.90
2023-02-08T23:19:27.498Z,99.90
2023-02-08T23:21:58.136Z,99.90
2023-02-08T23:24:25.426Z,99.90
2023-02-08T23:26:52.327Z,99.90
2023-02-08T23:29:19.309Z,99.90
2023-02-08T23:31:46.135Z,99.90
2023-02-08T23:34:12.920Z,99.90
2023-02-08T23:36:40.020Z,99.90
2023-02-08T23:39:07.971Z,99.90
2023-02-08T23:41:34.681Z,99.90
2023-02-08T23:44:01.547Z,99.90
2023-02-08T23:46:29.644Z,99.90
2023-02-08T23:48:56.422Z,99.90
2023-02-08T23:51:25.159Z,99.90
2023-02-08T23:53:53.219Z,99.90
2023-02-08T23:56:29.754Z,99.90
